sensor_id;sensor_type;location;lat;lon;timestamp;P1;durP1;ratioP1;P2;durP2;ratioP2
8040;SDS011;4063;48.140;10.250;2024-03-23T00:51:19;3.13;;;2.83;;
8040;SDS011;4063;48.140;10.250;2024-03-23T00:53:45;3.53;;;3.23;;
8040;SDS011;4063;48.140;10.250;2024-03-23T00:56:12;5.63;;;3.30;;
8040;SDS011;4063;48.140;10.250;2024-03-23T00:58:38;3.40;;;3.10;;
8040;SDS011;4063;48.140;10.250;2024-03-23T01:01:04;3.10;;;2.80;;
8040;SDS011;4063;48.140;10.250;2024-03-23T01:03:30;3.33;;;2.97;;
8040;SDS011;4063;48.140;10.250;2024-03-23T01:06:00;3.23;;;2.93;;
8040;SDS011;4063;48.140;10.250;2024-03-23T01:08:26;4.17;;;3.00;;
8040;SDS011;4063;48.140;10.250;2024-03-23T01:10:58;3.50;;;3.10;;
8040;SDS011;4063;48.140;10.250;2024-03-23T01:13:30;3.93;;;2.97;;
8040;SDS011;4063;48.140;10.250;2024-03-23T01:15:56;3.77;;;3.23;;
8040;SDS011;4063;48.140;10.250;2024-03-23T01:18:22;4.17;;;3.10;;
8040;SDS011;4063;48.140;10.250;2024-03-23T01:20:51;3.17;;;2.87;;
8040;SDS011;4063;48.140;10.250;2024-03-23T01:23:17;8.17;;;3.20;;
8040;SDS011;4063;48.140;10.250;2024-03-23T01:25:43;6.27;;;3.77;;
8040;SDS011;4063;48.140;10.250;2024-03-23T01:28:09;5.07;;;3.10;;
8040;SDS011;4063;48.140;10.250;2024-03-23T01:30:35;4.80;;;3.80;;
8040;SDS011;4063;48.140;10.250;2024-03-23T01:33:01;5.27;;;3.57;;
8040;SDS011;4063;48.140;10.250;2024-03-23T01:35:27;5.73;;;3.10;;
8040;SDS011;4063;48.140;10.250;2024-03-23T01:37:53;5.30;;;3.23;;
8040;SDS011;4063;48.140;10.250;2024-03-23T01:40:20;5.23;;;3.50;;
8040;SDS011;4063;48.140;10.250;2024-03-23T01:42:56;3.67;;;3.10;;
8040;SDS011;4063;48.140;10.250;2024-03-23T01:45:24;4.53;;;3.20;;
8040;SDS011;4063;48.140;10.250;2024-03-23T01:47:51;4.17;;;3.07;;
8040;SDS011;4063;48.140;10.250;2024-03-23T01:50:18;4.47;;;3.60;;
8040;SDS011;4063;48.140;10.250;2024-03-23T01:52:44;7.07;;;3.80;;
8040;SDS011;4063;48.140;10.250;2024-03-23T01:55:10;4.50;;;3.30;;
8040;SDS011;4063;48.140;10.250;2024-03-23T01:57:36;5.33;;;3.50;;
8040;SDS011;4063;48.140;10.250;2024-03-23T02:00:02;7.87;;;3.80;;
8040;SDS011;4063;48.140;10.250;2024-03-23T02:02:28;4.20;;;3.60;;
8040;SDS011;4063;48.140;10.250;2024-03-23T02:04:57;5.80;;;3.80;;
8040;SDS011;4063;48.140;10.250;2024-03-23T02:07:24;4.77;;;3.33;;
8040;SDS011;4063;48.140;10.250;2024-03-23T02:09:53;6.60;;;3.53;;
8040;SDS011;4063;48.140;10.250;2024-03-23T02:12:19;4.03;;;3.53;;
8040;SDS011;4063;48.140;10.250;2024-03-23T02:14:46;4.40;;;3.40;;
8040;SDS011;4063;48.140;10.250;2024-03-23T02:17:12;4.27;;;3.43;;
8040;SDS011;4063;48.140;10.250;2024-03-23T02:19:38;3.73;;;3.27;;
8040;SDS011;4063;48.140;10.250;2024-03-23T02:22:04;3.67;;;3.30;;
8040;SDS011;4063;48.140;10.250;2024-03-23T02:24:30;5.23;;;3.23;;
8040;SDS011;4063;48.140;10.250;2024-03-23T02:26:59;4.37;;;3.20;;
8040;SDS011;4063;48.140;10.250;2024-03-23T02:29:25;4.67;;;3.23;;
8040;SDS011;4063;48.140;10.250;2024-03-23T02:31:51;4.47;;;3.77;;
8040;SDS011;4063;48.140;10.250;2024-03-23T02:34:17;4.97;;;3.03;;
8040;SDS011;4063;48.140;10.250;2024-03-23T02:36:42;3.47;;;3.17;;
8040;SDS011;4063;48.140;10.250;2024-03-23T02:39:08;4.43;;;3.13;;
8040;SDS011;4063;48.140;10.250;2024-03-23T02:41:36;4.17;;;3.30;;
8040;SDS011;4063;48.140;10.250;2024-03-23T02:44:03;4.00;;;2.97;;
8040;SDS011;4063;48.140;10.250;2024-03-23T02:46:29;4.30;;;3.00;;
8040;SDS011;4063;48.140;10.250;2024-03-23T02:48:55;3.60;;;2.60;;
8040;SDS011;4063;48.140;10.250;2024-03-23T02:51:21;3.10;;;2.80;;
8040;SDS011;4063;48.140;10.250;2024-03-23T02:53:47;5.00;;;2.70;;
8040;SDS011;4063;48.140;10.250;2024-03-23T02:56:13;3.80;;;2.87;;
8040;SDS011;4063;48.140;10.250;2024-03-23T02:58:42;3.43;;;2.83;;
8040;SDS011;4063;48.140;10.250;2024-03-23T03:01:09;4.70;;;3.00;;
8040;SDS011;4063;48.140;10.250;2024-03-23T03:03:35;3.63;;;2.40;;
8040;SDS011;4063;48.140;10.250;2024-03-23T03:06:02;3.87;;;2.67;;
8040;SDS011;4063;48.140;10.250;2024-03-23T03:08:28;3.83;;;2.87;;
8040;SDS011;4063;48.140;10.250;2024-03-23T03:10:54;4.63;;;2.60;;
8040;SDS011;4063;48.140;10.250;2024-03-23T03:13:22;3.73;;;2.93;;
8040;SDS011;4063;48.140;10.250;2024-03-23T03:15:48;3.53;;;2.50;;
8040;SDS011;4063;48.140;10.250;2024-03-23T03:18:14;3.07;;;2.23;;
8040;SDS011;4063;48.140;10.250;2024-03-23T03:20:41;3.07;;;2.60;;
8040;SDS011;4063;48.140;10.250;2024-03-23T03:23:07;4.20;;;2.10;;
8040;SDS011;4063;48.140;10.250;2024-03-23T03:25:34;2.67;;;2.30;;
8040;SDS011;4063;48.140;10.250;2024-03-23T03:28:05;6.17;;;2.77;;
8040;SDS011;4063;48.140;10.250;2024-03-23T03:30:31;3.07;;;2.20;;
8040;SDS011;4063;48.140;10.250;2024-03-23T03:32:57;7.03;;;2.27;;
8040;SDS011;4063;48.140;10.250;2024-03-23T03:35:22;3.17;;;2.50;;
8040;SDS011;4063;48.140;10.250;2024-03-23T03:37:48;2.53;;;2.33;;
8040;SDS011;4063;48.140;10.250;2024-03-23T03:40:14;2.20;;;2.00;;
8040;SDS011;4063;48.140;10.250;2024-03-23T03:42:41;2.77;;;2.30;;
8040;SDS011;4063;48.140;10.250;2024-03-23T03:45:07;2.43;;;2.23;;
8040;SDS011;4063;48.140;10.250;2024-03-23T03:47:33;5.27;;;2.57;;
8040;SDS011;4063;48.140;10.250;2024-03-23T03:49:59;4.33;;;2.80;;
8040;SDS011;4063;48.140;10.250;2024-03-23T03:52:25;3.40;;;2.53;;
8040;SDS011;4063;48.140;10.250;2024-03-23T03:54:51;3.07;;;2.17;;
8040;SDS011;4063;48.140;10.250;2024-03-23T03:57:17;3.83;;;2.50;;
8040;SDS011;4063;48.140;10.250;2024-03-23T03:59:44;3.97;;;2.00;;
8040;SDS011;4063;48.140;10.250;2024-03-23T04:02:09;3.87;;;2.10;;
8040;SDS011;4063;48.140;10.250;2024-03-23T04:04:35;3.23;;;2.30;;
8040;SDS011;4063;48.140;10.250;2024-03-23T04:07:02;2.60;;;2.00;;
8040;SDS011;4063;48.140;10.250;2024-03-23T04:09:30;2.73;;;2.43;;
8040;SDS011;4063;48.140;10.250;2024-03-23T04:11:56;3.87;;;2.77;;
8040;SDS011;4063;48.140;10.250;2024-03-23T04:14:22;2.88;;;2.40;;
8040;SDS011;4063;48.140;10.250;2024-03-23T04:16:47;3.03;;;2.43;;
8040;SDS011;4063;48.140;10.250;2024-03-23T04:19:13;4.70;;;2.40;;
8040;SDS011;4063;48.140;10.250;2024-03-23T04:21:40;5.00;;;2.33;;
8040;SDS011;4063;48.140;10.250;2024-03-23T04:24:06;3.87;;;2.30;;
8040;SDS011;4063;48.140;10.250;2024-03-23T04:26:41;4.60;;;2.50;;
8040;SDS011;4063;48.140;10.250;2024-03-23T04:29:07;2.97;;;2.13;;
8040;SDS011;4063;48.140;10.250;2024-03-23T04:31:33;6.80;;;2.70;;
8040;SDS011;4063;48.140;10.250;2024-03-23T04:34:00;3.20;;;2.30;;
8040;SDS011;4063;48.140;10.250;2024-03-23T04:36:26;4.03;;;2.30;;
8040;SDS011;4063;48.140;10.250;2024-03-23T04:38:52;2.63;;;2.43;;
8040;SDS011;4063;48.140;10.250;2024-03-23T04:41:18;2.50;;;2.20;;
8040;SDS011;4063;48.140;10.250;2024-03-23T04:43:44;3.10;;;2.10;;
8040;SDS011;4063;48.140;10.250;2024-03-23T04:46:10;2.93;;;2.20;;
8040;SDS011;4063;48.140;10.250;2024-03-23T04:48:36;2.83;;;2.13;;
8040;SDS011;4063;48.140;10.250;2024-03-23T04:51:02;2.47;;;2.27;;
8040;SDS011;4063;48.140;10.250;2024-03-23T04:53:28;5.17;;;2.70;;
8040;SDS011;4063;48.140;10.250;2024-03-23T04:56:00;5.83;;;2.47;;
8040;SDS011;4063;48.140;10.250;2024-03-23T04:58:27;4.07;;;2.47;;
8040;SDS011;4063;48.140;10.250;2024-03-23T05:00:57;7.13;;;2.30;;
8040;SDS011;4063;48.140;10.250;2024-03-23T05:03:23;3.20;;;2.20;;
8040;SDS011;4063;48.140;10.250;2024-03-23T05:05:49;3.80;;;2.33;;
8040;SDS011;4063;48.140;10.250;2024-03-23T05:08:15;2.70;;;2.50;;
8040;SDS011;4063;48.140;10.250;2024-03-23T05:10:42;4.10;;;2.40;;
8040;SDS011;4063;48.140;10.250;2024-03-23T05:13:08;4.80;;;3.83;;
8040;SDS011;4063;48.140;10.250;2024-03-23T05:15:34;2.30;;;2.10;;
8040;SDS011;4063;48.140;10.250;2024-03-23T05:18:02;2.83;;;2.53;;
8040;SDS011;4063;48.140;10.250;2024-03-23T05:20:28;3.97;;;2.77;;
8040;SDS011;4063;48.140;10.250;2024-03-23T05:23:01;5.23;;;2.40;;
8040;SDS011;4063;48.140;10.250;2024-03-23T05:25:30;3.70;;;2.53;;
8040;SDS011;4063;48.140;10.250;2024-03-23T05:27:56;2.93;;;2.57;;
8040;SDS011;4063;48.140;10.250;2024-03-23T05:30:25;4.27;;;2.87;;
8040;SDS011;4063;48.140;10.250;2024-03-23T05:32:51;2.70;;;2.30;;
8040;SDS011;4063;48.140;10.250;2024-03-23T05:35:17;3.77;;;2.33;;
8040;SDS011;4063;48.140;10.250;2024-03-23T05:37:43;3.23;;;2.43;;
8040;SDS011;4063;48.140;10.250;2024-03-23T05:40:13;3.23;;;2.80;;
8040;SDS011;4063;48.140;10.250;2024-03-23T05:42:40;3.53;;;2.60;;
8040;SDS011;4063;48.140;10.250;2024-03-23T05:45:06;7.63;;;2.57;;
8040;SDS011;4063;48.140;10.250;2024-03-23T05:47:33;3.30;;;2.27;;
8040;SDS011;4063;48.140;10.250;2024-03-23T05:49:59;3.07;;;2.30;;
8040;SDS011;4063;48.140;10.250;2024-03-23T05:52:24;4.60;;;2.30;;
8040;SDS011;4063;48.140;10.250;2024-03-23T05:54:52;3.27;;;2.20;;
8040;SDS011;4063;48.140;10.250;2024-03-23T05:57:18;3.37;;;2.50;;
8040;SDS011;4063;48.140;10.250;2024-03-23T05:59:44;3.27;;;2.40;;
8040;SDS011;4063;48.140;10.250;2024-03-23T06:02:10;3.50;;;2.50;;
8040;SDS011;4063;48.140;10.250;2024-03-23T06:04:36;4.00;;;2.07;;
8040;SDS011;4063;48.140;10.250;2024-03-23T06:07:02;3.37;;;2.10;;
8040;SDS011;4063;48.140;10.250;2024-03-23T06:09:28;4.03;;;2.27;;
8040;SDS011;4063;48.140;10.250;2024-03-23T06:11:56;2.83;;;2.37;;
8040;SDS011;4063;48.140;10.250;2024-03-23T06:14:22;4.00;;;2.10;;
8040;SDS011;4063;48.140;10.250;2024-03-23T06:16:48;3.90;;;2.50;;
8040;SDS011;4063;48.140;10.250;2024-03-23T06:19:14;2.53;;;2.30;;
8040;SDS011;4063;48.140;10.250;2024-03-23T06:21:43;5.00;;;2.47;;
8040;SDS011;4063;48.140;10.250;2024-03-23T06:24:10;2.80;;;2.10;;
8040;SDS011;4063;48.140;10.250;2024-03-23T06:26:36;3.43;;;2.20;;
8040;SDS011;4063;48.140;10.250;2024-03-23T06:29:02;2.83;;;2.33;;
8040;SDS011;4063;48.140;10.250;2024-03-23T06:31:30;3.17;;;2.70;;
8040;SDS011;4063;48.140;10.250;2024-03-23T06:33:55;3.03;;;2.70;;
8040;SDS011;4063;48.140;10.250;2024-03-23T06:36:21;3.87;;;2.70;;
8040;SDS011;4063;48.140;10.250;2024-03-23T06:38:47;4.70;;;2.90;;
8040;SDS011;4063;48.140;10.250;2024-03-23T06:41:13;6.97;;;2.87;;
8040;SDS011;4063;48.140;10.250;2024-03-23T06:43:39;0.30;;;0.30;;
8040;SDS011;4063;48.140;10.250;2024-03-23T06:46:05;0.20;;;0.20;;
8040;SDS011;4063;48.140;10.250;2024-03-23T06:48:31;0.60;;;0.60;;
8040;SDS011;4063;48.140;10.250;2024-03-23T06:50:57;0.30;;;0.30;;
8040;SDS011;4063;48.140;10.250;2024-03-23T06:53:25;0.20;;;0.20;;
8040;SDS011;4063;48.140;10.250;2024-03-23T06:55:52;0.20;;;0.20;;
8040;SDS011;4063;48.140;10.250;2024-03-23T06:58:21;0.20;;;0.20;;
8040;SDS011;4063;48.140;10.250;2024-03-23T07:00:48;0.20;;;0.20;;
8040;SDS011;4063;48.140;10.250;2024-03-23T07:03:14;0.83;;;0.83;;
8040;SDS011;4063;48.140;10.250;2024-03-23T07:05:40;0.20;;;0.20;;
8040;SDS011;4063;48.140;10.250;2024-03-23T07:08:07;0.20;;;0.20;;
8040;SDS011;4063;48.140;10.250;2024-03-23T07:10:33;0.20;;;0.20;;
8040;SDS011;4063;48.140;10.250;2024-03-23T07:12:59;0.30;;;0.30;;
8040;SDS011;4063;48.140;10.250;2024-03-23T07:15:25;0.20;;;0.20;;
8040;SDS011;4063;48.140;10.250;2024-03-23T07:17:51;0.20;;;0.20;;
8040;SDS011;4063;48.140;10.250;2024-03-23T07:20:17;0.50;;;0.50;;
8040;SDS011;4063;48.140;10.250;2024-03-23T07:22:45;0.17;;;0.17;;
8040;SDS011;4063;48.140;10.250;2024-03-23T07:25:11;0.30;;;0.30;;
8040;SDS011;4063;48.140;10.250;2024-03-23T07:27:36;0.20;;;0.20;;
8040;SDS011;4063;48.140;10.250;2024-03-23T07:30:02;0.33;;;0.33;;
8040;SDS011;4063;48.140;10.250;2024-03-23T07:32:28;0.20;;;0.20;;
8040;SDS011;4063;48.140;10.250;2024-03-23T07:34:54;0.20;;;0.20;;
8040;SDS011;4063;48.140;10.250;2024-03-23T07:37:20;0.20;;;0.20;;
8040;SDS011;4063;48.140;10.250;2024-03-23T07:39:46;0.30;;;0.30;;
8040;SDS011;4063;48.140;10.250;2024-03-23T07:42:12;0.20;;;0.20;;
8040;SDS011;4063;48.140;10.250;2024-03-23T07:44:39;0.20;;;0.20;;
8040;SDS011;4063;48.140;10.250;2024-03-23T07:47:05;0.20;;;0.20;;
8040;SDS011;4063;48.140;10.250;2024-03-23T07:49:32;0.30;;;0.30;;
8040;SDS011;4063;48.140;10.250;2024-03-23T07:51:58;0.20;;;0.20;;
8040;SDS011;4063;48.140;10.250;2024-03-23T07:54:24;0.30;;;0.30;;
8040;SDS011;4063;48.140;10.250;2024-03-23T07:56:50;0.20;;;0.20;;
8040;SDS011;4063;48.140;10.250;2024-03-23T07:59:15;0.20;;;0.20;;
8040;SDS011;4063;48.140;10.250;2024-03-23T08:01:43;0.20;;;0.20;;
8040;SDS011;4063;48.140;10.250;2024-03-23T08:04:09;0.40;;;0.40;;
8040;SDS011;4063;48.140;10.250;2024-03-23T08:06:35;0.40;;;0.40;;
8040;SDS011;4063;48.140;10.250;2024-03-23T08:09:01;0.20;;;0.20;;
8040;SDS011;4063;48.140;10.250;2024-03-23T08:11:27;0.20;;;0.20;;
8040;SDS011;4063;48.140;10.250;2024-03-23T08:13:54;0.30;;;0.30;;
8040;SDS011;4063;48.140;10.250;2024-03-23T08:16:20;0.20;;;0.20;;
8040;SDS011;4063;48.140;10.250;2024-03-23T08:18:48;0.27;;;0.27;;
8040;SDS011;4063;48.140;10.250;2024-03-23T08:21:14;0.20;;;0.20;;
8040;SDS011;4063;48.140;10.250;2024-03-23T08:23:40;0.20;;;0.20;;
8040;SDS011;4063;48.140;10.250;2024-03-23T08:26:07;0.20;;;0.20;;
8040;SDS011;4063;48.140;10.250;2024-03-23T08:28:33;0.30;;;0.30;;
8040;SDS011;4063;48.140;10.250;2024-03-23T08:31:12;0.27;;;0.27;;
8040;SDS011;4063;48.140;10.250;2024-03-23T08:33:39;0.20;;;0.20;;
8040;SDS011;4063;48.140;10.250;2024-03-23T08:36:08;0.23;;;0.23;;
8040;SDS011;4063;48.140;10.250;2024-03-23T08:38:34;0.30;;;0.30;;
8040;SDS011;4063;48.140;10.250;2024-03-23T08:41:01;0.30;;;0.30;;
8040;SDS011;4063;48.140;10.250;2024-03-23T08:43:27;0.30;;;0.30;;
8040;SDS011;4063;48.140;10.250;2024-03-23T08:46:02;0.30;;;0.30;;
8040;SDS011;4063;48.140;10.250;2024-03-23T08:48:28;0.20;;;0.20;;
8040;SDS011;4063;48.140;10.250;2024-03-23T08:50:59;0.30;;;0.30;;
8040;SDS011;4063;48.140;10.250;2024-03-23T08:53:26;0.77;;;0.77;;
8040;SDS011;4063;48.140;10.250;2024-03-23T08:55:55;0.30;;;0.30;;
8040;SDS011;4063;48.140;10.250;2024-03-23T08:58:23;0.73;;;0.73;;
8040;SDS011;4063;48.140;10.250;2024-03-23T09:00:49;0.20;;;0.20;;
8040;SDS011;4063;48.140;10.250;2024-03-23T09:03:15;0.20;;;0.20;;
8040;SDS011;4063;48.140;10.250;2024-03-23T09:05:41;0.20;;;0.20;;
8040;SDS011;4063;48.140;10.250;2024-03-23T09:08:07;0.20;;;0.20;;
8040;SDS011;4063;48.140;10.250;2024-03-23T09:10:40;0.20;;;0.20;;
8040;SDS011;4063;48.140;10.250;2024-03-23T09:13:06;0.20;;;0.20;;
8040;SDS011;4063;48.140;10.250;2024-03-23T09:15:35;0.20;;;0.20;;
8040;SDS011;4063;48.140;10.250;2024-03-23T09:18:02;0.20;;;0.20;;
8040;SDS011;4063;48.140;10.250;2024-03-23T09:20:28;0.20;;;0.20;;
8040;SDS011;4063;48.140;10.250;2024-03-23T09:22:54;0.20;;;0.20;;
8040;SDS011;4063;48.140;10.250;2024-03-23T09:25:20;0.30;;;0.30;;
8040;SDS011;4063;48.140;10.250;2024-03-23T09:27:46;0.30;;;0.30;;
8040;SDS011;4063;48.140;10.250;2024-03-23T09:30:13;0.20;;;0.20;;
8040;SDS011;4063;48.140;10.250;2024-03-23T09:32:40;0.20;;;0.20;;
8040;SDS011;4063;48.140;10.250;2024-03-23T09:35:06;0.20;;;0.20;;
8040;SDS011;4063;48.140;10.250;2024-03-23T09:37:32;0.30;;;0.30;;
8040;SDS011;4063;48.140;10.250;2024-03-23T09:39:58;0.27;;;0.27;;
8040;SDS011;4063;48.140;10.250;2024-03-23T09:42:24;0.30;;;0.30;;
8040;SDS011;4063;48.140;10.250;2024-03-23T09:44:50;0.20;;;0.20;;
8040;SDS011;4063;48.140;10.250;2024-03-23T09:47:17;0.30;;;0.30;;
8040;SDS011;4063;48.140;10.250;2024-03-23T09:49:43;0.30;;;0.30;;
8040;SDS011;4063;48.140;10.250;2024-03-23T09:52:09;0.30;;;0.30;;
8040;SDS011;4063;48.140;10.250;2024-03-23T09:54:35;0.30;;;0.30;;
8040;SDS011;4063;48.140;10.250;2024-03-23T09:57:01;0.20;;;0.20;;
8040;SDS011;4063;48.140;10.250;2024-03-23T09:59:27;0.30;;;0.30;;
8040;SDS011;4063;48.140;10.250;2024-03-23T10:01:54;0.30;;;0.30;;
8040;SDS011;4063;48.140;10.250;2024-03-23T10:04:39;0.20;;;0.20;;
8040;SDS011;4063;48.140;10.250;2024-03-23T10:07:11;0.20;;;0.20;;
8040;SDS011;4063;48.140;10.250;2024-03-23T10:09:38;0.30;;;0.30;;
8040;SDS011;4063;48.140;10.250;2024-03-23T10:12:08;0.40;;;0.40;;
8040;SDS011;4063;48.140;10.250;2024-03-23T10:14:34;0.30;;;0.30;;
8040;SDS011;4063;48.140;10.250;2024-03-23T10:17:11;0.30;;;0.30;;
8040;SDS011;4063;48.140;10.250;2024-03-23T10:19:38;0.20;;;0.20;;
8040;SDS011;4063;48.140;10.250;2024-03-23T10:22:04;0.50;;;0.50;;
8040;SDS011;4063;48.140;10.250;2024-03-23T10:24:32;0.30;;;0.30;;
8040;SDS011;4063;48.140;10.250;2024-03-23T10:26:58;0.20;;;0.20;;
8040;SDS011;4063;48.140;10.250;2024-03-23T10:29:24;0.30;;;0.30;;
8040;SDS011;4063;48.140;10.250;2024-03-23T10:31:52;0.20;;;0.20;;
8040;SDS011;4063;48.140;10.250;2024-03-23T10:34:25;0.20;;;0.20;;
8040;SDS011;4063;48.140;10.250;2024-03-23T10:36:54;0.20;;;0.20;;
8040;SDS011;4063;48.140;10.250;2024-03-23T10:39:21;0.20;;;0.20;;
8040;SDS011;4063;48.140;10.250;2024-03-23T10:41:49;0.47;;;0.47;;
8040;SDS011;4063;48.140;10.250;2024-03-23T10:44:19;0.30;;;0.30;;
8040;SDS011;4063;48.140;10.250;2024-03-23T10:46:45;0.30;;;0.30;;
8040;SDS011;4063;48.140;10.250;2024-03-23T10:49:11;0.20;;;0.20;;
8040;SDS011;4063;48.140;10.250;2024-03-23T10:51:37;0.20;;;0.20;;
8040;SDS011;4063;48.140;10.250;2024-03-23T10:54:06;0.30;;;0.30;;
8040;SDS011;4063;48.140;10.250;2024-03-23T10:56:33;0.20;;;0.20;;
8040;SDS011;4063;48.140;10.250;2024-03-23T10:59:00;0.20;;;0.20;;
8040;SDS011;4063;48.140;10.250;2024-03-23T11:01:28;0.20;;;0.20;;
8040;SDS011;4063;48.140;10.250;2024-03-23T11:03:54;0.20;;;0.20;;
8040;SDS011;4063;48.140;10.250;2024-03-23T11:06:36;0.20;;;0.20;;
8040;SDS011;4063;48.140;10.250;2024-03-23T11:09:02;0.30;;;0.30;;
8040;SDS011;4063;48.140;10.250;2024-03-23T11:11:28;0.27;;;0.27;;
8040;SDS011;4063;48.140;10.250;2024-03-23T11:13:57;3.93;;;2.50;;
8040;SDS011;4063;48.140;10.250;2024-03-23T11:16:23;3.83;;;2.57;;
8040;SDS011;4063;48.140;10.250;2024-03-23T11:18:50;5.30;;;2.53;;
8040;SDS011;4063;48.140;10.250;2024-03-23T11:24:14;7.43;;;2.80;;
8040;SDS011;4063;48.140;10.250;2024-03-23T11:26:40;3.80;;;2.67;;
8040;SDS011;4063;48.140;10.250;2024-03-23T11:29:13;4.67;;;3.10;;
8040;SDS011;4063;48.140;10.250;2024-03-23T11:31:45;3.27;;;2.80;;
8040;SDS011;4063;48.140;10.250;2024-03-23T11:34:11;3.23;;;2.57;;
8040;SDS011;4063;48.140;10.250;2024-03-23T11:36:37;5.67;;;2.63;;
8040;SDS011;4063;48.140;10.250;2024-03-23T11:39:13;4.87;;;2.43;;
8040;SDS011;4063;48.140;10.250;2024-03-23T11:41:59;4.30;;;3.33;;
8040;SDS011;4063;48.140;10.250;2024-03-23T11:44:25;5.03;;;2.80;;
8040;SDS011;4063;48.140;10.250;2024-03-23T11:46:52;2.93;;;2.40;;
8040;SDS011;4063;48.140;10.250;2024-03-23T11:49:25;7.27;;;3.07;;
8040;SDS011;4063;48.140;10.250;2024-03-23T11:51:52;3.72;;;2.95;;
8040;SDS011;4063;48.140;10.250;2024-03-23T11:54:22;8.80;;;4.37;;
8040;SDS011;4063;48.140;10.250;2024-03-23T11:57:04;6.07;;;2.50;;
8040;SDS011;4063;48.140;10.250;2024-03-23T12:02:12;4.53;;;2.55;;
8040;SDS011;4063;48.140;10.250;2024-03-23T12:04:39;4.40;;;2.07;;
8040;SDS011;4063;48.140;10.250;2024-03-23T12:07:18;3.13;;;2.10;;
8040;SDS011;4063;48.140;10.250;2024-03-23T12:09:45;5.30;;;2.43;;
8040;SDS011;4063;48.140;10.250;2024-03-23T12:12:15;3.03;;;1.90;;
8040;SDS011;4063;48.140;10.250;2024-03-23T12:14:45;4.93;;;2.07;;
8040;SDS011;4063;48.140;10.250;2024-03-23T12:19:37;4.33;;;2.27;;
8040;SDS011;4063;48.140;10.250;2024-03-23T12:22:04;3.33;;;1.90;;
8040;SDS011;4063;48.140;10.250;2024-03-23T12:24:30;4.10;;;2.37;;
8040;SDS011;4063;48.140;10.250;2024-03-23T12:27:00;6.63;;;2.00;;
8040;SDS011;4063;48.140;10.250;2024-03-23T12:29:28;3.40;;;2.30;;
8040;SDS011;4063;48.140;10.250;2024-03-23T12:31:54;4.10;;;1.97;;
8040;SDS011;4063;48.140;10.250;2024-03-23T12:34:21;6.17;;;2.60;;
8040;SDS011;4063;48.140;10.250;2024-03-23T12:36:47;4.50;;;2.37;;
8040;SDS011;4063;48.140;10.250;2024-03-23T12:39:13;3.43;;;1.87;;
8040;SDS011;4063;48.140;10.250;2024-03-23T12:41:39;7.10;;;2.90;;
8040;SDS011;4063;48.140;10.250;2024-03-23T12:44:05;4.37;;;2.43;;
8040;SDS011;4063;48.140;10.250;2024-03-23T12:46:33;5.77;;;2.63;;
8040;SDS011;4063;48.140;10.250;2024-03-23T12:48:59;5.53;;;3.40;;
8040;SDS011;4063;48.140;10.250;2024-03-23T12:51:25;6.97;;;2.80;;
8040;SDS011;4063;48.140;10.250;2024-03-23T12:53:51;3.17;;;1.93;;
8040;SDS011;4063;48.140;10.250;2024-03-23T12:56:17;7.23;;;4.67;;
8040;SDS011;4063;48.140;10.250;2024-03-23T12:58:43;11.23;;;6.37;;
8040;SDS011;4063;48.140;10.250;2024-03-23T13:01:09;3.60;;;2.63;;
8040;SDS011;4063;48.140;10.250;2024-03-23T13:03:35;6.67;;;2.80;;
8040;SDS011;4063;48.140;10.250;2024-03-23T13:06:02;6.17;;;3.47;;
8040;SDS011;4063;48.140;10.250;2024-03-23T13:08:32;6.97;;;2.97;;
8040;SDS011;4063;48.140;10.250;2024-03-23T13:10:58;2.87;;;2.17;;
8040;SDS011;4063;48.140;10.250;2024-03-23T13:13:24;4.23;;;2.70;;
8040;SDS011;4063;48.140;10.250;2024-03-23T13:15:50;6.00;;;2.27;;
8040;SDS011;4063;48.140;10.250;2024-03-23T13:18:16;4.80;;;3.10;;
8040;SDS011;4063;48.140;10.250;2024-03-23T13:20:42;4.23;;;1.70;;
8040;SDS011;4063;48.140;10.250;2024-03-23T13:23:08;4.67;;;2.87;;
8040;SDS011;4063;48.140;10.250;2024-03-23T13:25:34;5.93;;;4.47;;
8040;SDS011;4063;48.140;10.250;2024-03-23T13:28:01;4.03;;;2.13;;
8040;SDS011;4063;48.140;10.250;2024-03-23T13:30:27;5.73;;;2.93;;
8040;SDS011;4063;48.140;10.250;2024-03-23T13:32:53;1.90;;;1.67;;
8040;SDS011;4063;48.140;10.250;2024-03-23T13:35:19;5.37;;;2.93;;
8040;SDS011;4063;48.140;10.250;2024-03-23T13:37:45;4.10;;;2.10;;
8040;SDS011;4063;48.140;10.250;2024-03-23T13:40:11;5.47;;;2.20;;
8040;SDS011;4063;48.140;10.250;2024-03-23T13:42:37;4.60;;;2.50;;
8040;SDS011;4063;48.140;10.250;2024-03-23T13:45:03;3.97;;;2.47;;
8040;SDS011;4063;48.140;10.250;2024-03-23T13:47:29;5.00;;;1.97;;
8040;SDS011;4063;48.140;10.250;2024-03-23T13:49:55;4.20;;;1.80;;
8040;SDS011;4063;48.140;10.250;2024-03-23T13:52:21;2.63;;;2.10;;
8040;SDS011;4063;48.140;10.250;2024-03-23T13:54:48;3.77;;;2.60;;
8040;SDS011;4063;48.140;10.250;2024-03-23T13:57:13;3.07;;;2.03;;
8040;SDS011;4063;48.140;10.250;2024-03-23T13:59:42;3.27;;;1.60;;
8040;SDS011;4063;48.140;10.250;2024-03-23T14:02:08;6.53;;;3.13;;
8040;SDS011;4063;48.140;10.250;2024-03-23T14:04:34;3.23;;;1.90;;
8040;SDS011;4063;48.140;10.250;2024-03-23T14:06:59;3.80;;;1.77;;
8040;SDS011;4063;48.140;10.250;2024-03-23T14:09:25;4.83;;;2.40;;
8040;SDS011;4063;48.140;10.250;2024-03-23T14:11:51;3.57;;;1.90;;
8040;SDS011;4063;48.140;10.250;2024-03-23T14:14:17;3.57;;;1.93;;
8040;SDS011;4063;48.140;10.250;2024-03-23T14:16:43;5.80;;;2.20;;
8040;SDS011;4063;48.140;10.250;2024-03-23T14:19:09;3.07;;;1.97;;
8040;SDS011;4063;48.140;10.250;2024-03-23T14:21:35;4.40;;;1.80;;
8040;SDS011;4063;48.140;10.250;2024-03-23T14:24:02;2.10;;;1.70;;
8040;SDS011;4063;48.140;10.250;2024-03-23T14:26:29;3.40;;;1.80;;
8040;SDS011;4063;48.140;10.250;2024-03-23T14:28:54;3.97;;;1.73;;
8040;SDS011;4063;48.140;10.250;2024-03-23T14:31:20;4.23;;;2.00;;
8040;SDS011;4063;48.140;10.250;2024-03-23T14:33:46;4.63;;;2.00;;
8040;SDS011;4063;48.140;10.250;2024-03-23T14:36:13;3.83;;;1.70;;
8040;SDS011;4063;48.140;10.250;2024-03-23T14:38:39;5.67;;;1.43;;
8040;SDS011;4063;48.140;10.250;2024-03-23T14:41:05;4.33;;;1.80;;
8040;SDS011;4063;48.140;10.250;2024-03-23T14:43:31;6.83;;;1.77;;
8040;SDS011;4063;48.140;10.250;2024-03-23T14:46:13;3.87;;;1.80;;
8040;SDS011;4063;48.140;10.250;2024-03-23T14:48:39;4.63;;;1.90;;
8040;SDS011;4063;48.140;10.250;2024-03-23T14:51:06;3.37;;;1.70;;
8040;SDS011;4063;48.140;10.250;2024-03-23T14:53:33;4.13;;;1.80;;
8040;SDS011;4063;48.140;10.250;2024-03-23T14:56:00;2.90;;;1.90;;
8040;SDS011;4063;48.140;10.250;2024-03-23T14:58:26;3.90;;;2.10;;
8040;SDS011;4063;48.140;10.250;2024-03-23T15:00:52;3.67;;;1.63;;
8040;SDS011;4063;48.140;10.250;2024-03-23T15:03:18;5.07;;;2.00;;
8040;SDS011;4063;48.140;10.250;2024-03-23T15:05:53;3.60;;;1.83;;
8040;SDS011;4063;48.140;10.250;2024-03-23T15:08:20;4.83;;;1.90;;
8040;SDS011;4063;48.140;10.250;2024-03-23T15:10:46;4.40;;;1.80;;
8040;SDS011;4063;48.140;10.250;2024-03-23T15:13:13;5.00;;;1.83;;
8040;SDS011;4063;48.140;10.250;2024-03-23T15:15:42;3.00;;;2.00;;
8040;SDS011;4063;48.140;10.250;2024-03-23T15:18:12;4.00;;;1.90;;
8040;SDS011;4063;48.140;10.250;2024-03-23T15:20:39;5.90;;;2.00;;
8040;SDS011;4063;48.140;10.250;2024-03-23T15:23:07;2.20;;;1.20;;
8040;SDS011;4063;48.140;10.250;2024-03-23T15:25:33;2.73;;;1.30;;
8040;SDS011;4063;48.140;10.250;2024-03-23T15:28:00;3.10;;;1.50;;
8040;SDS011;4063;48.140;10.250;2024-03-23T15:30:27;4.40;;;1.50;;
8040;SDS011;4063;48.140;10.250;2024-03-23T15:32:54;3.03;;;1.40;;
8040;SDS011;4063;48.140;10.250;2024-03-23T15:35:20;4.77;;;1.60;;
8040;SDS011;4063;48.140;10.250;2024-03-23T15:37:48;2.53;;;1.30;;
8040;SDS011;4063;48.140;10.250;2024-03-23T15:40:15;5.60;;;1.70;;
8040;SDS011;4063;48.140;10.250;2024-03-23T15:42:41;5.33;;;1.70;;
8040;SDS011;4063;48.140;10.250;2024-03-23T15:45:07;2.27;;;1.60;;
8040;SDS011;4063;48.140;10.250;2024-03-23T15:47:34;2.10;;;1.30;;
8040;SDS011;4063;48.140;10.250;2024-03-23T15:50:00;2.90;;;1.60;;
8040;SDS011;4063;48.140;10.250;2024-03-23T15:52:28;4.40;;;1.60;;
8040;SDS011;4063;48.140;10.250;2024-03-23T15:54:54;2.73;;;1.37;;
8040;SDS011;4063;48.140;10.250;2024-03-23T15:57:22;2.03;;;1.20;;